sensor_id;sensor_type;location;lat;lon;timestamp;P1;durP1;ratioP1;P2;durP2;ratioP2
76852;SDS011;65825;52.232;10.566;2023-03-01T00:01:08;11.52;;;5.20;;
76852;SDS011;65825;52.232;10.566;2023-03-01T00:03:36;13.23;;;5.72;;
76852;SDS011;65825;52.232;10.566;2023-03-01T00:06:01;15.40;;;5.53;;
76852;SDS011;65825;52.232;10.566;2023-03-01T00:08:28;12.68;;;5.15;;
76852;SDS011;65825;52.232;10.566;2023-03-01T00:11:27;15.05;;;5.55;;
76852;SDS011;65825;52.232;10.566;2023-03-01T00:13:53;11.43;;;5.28;;
76852;SDS011;65825;52.232;10.566;2023-03-01T00:16:30;10.88;;;5.28;;
76852;SDS011;65825;52.232;10.566;2023-03-01T00:18:58;11.05;;;5.32;;
76852;SDS011;65825;52.232;10.566;2023-03-01T00:21:24;10.85;;;5.15;;
76852;SDS011;65825;52.232;10.566;2023-03-01T00:23:50;12.18;;;5.15;;
76852;SDS011;65825;52.232;10.566;2023-03-01T00:26:16;13.30;;;5.57;;
76852;SDS011;65825;52.232;10.566;2023-03-01T00:31:09;12.45;;;4.93;;
76852;SDS011;65825;52.232;10.566;2023-03-01T00:33:36;12.48;;;4.93;;
76852;SDS011;65825;52.232;10.566;2023-03-01T00:36:02;13.73;;;5.60;;
76852;SDS011;65825;52.232;10.566;2023-03-01T00:38:28;16.30;;;5.30;;
76852;SDS011;65825;52.232;10.566;2023-03-01T00:40:53;12.85;;;5.75;;
76852;SDS011;65825;52.232;10.566;2023-03-01T00:43:18;13.63;;;5.37;;
76852;SDS011;65825;52.232;10.566;2023-03-01T00:45:44;12.60;;;4.87;;
76852;SDS011;65825;52.232;10.566;2023-03-01T00:48:09;10.88;;;5.55;;
76852;SDS011;65825;52.232;10.566;2023-03-01T00:50:35;13.10;;;5.33;;
76852;SDS011;65825;52.232;10.566;2023-03-01T00:53:00;10.68;;;4.57;;
76852;SDS011;65825;52.232;10.566;2023-03-01T00:55:25;12.57;;;5.00;;
76852;SDS011;65825;52.232;10.566;2023-03-01T00:57:51;12.65;;;5.80;;
76852;SDS011;65825;52.232;10.566;2023-03-01T01:00:17;9.02;;;5.13;;
76852;SDS011;65825;52.232;10.566;2023-03-01T01:02:43;17.13;;;5.32;;
76852;SDS011;65825;52.232;10.566;2023-03-01T01:05:09;11.07;;;5.38;;
76852;SDS011;65825;52.232;10.566;2023-03-01T01:07:34;10.50;;;5.03;;
76852;SDS011;65825;52.232;10.566;2023-03-01T01:10:00;10.82;;;5.03;;
76852;SDS011;65825;52.232;10.566;2023-03-01T01:12:25;9.77;;;4.57;;
76852;SDS011;65825;52.232;10.566;2023-03-01T01:14:50;9.80;;;5.07;;
76852;SDS011;65825;52.232;10.566;2023-03-01T01:17:15;12.13;;;5.20;;
76852;SDS011;65825;52.232;10.566;2023-03-01T01:19:41;12.73;;;4.97;;
76852;SDS011;65825;52.232;10.566;2023-03-01T01:22:06;11.63;;;4.53;;
76852;SDS011;65825;52.232;10.566;2023-03-01T01:24:31;10.13;;;4.28;;
76852;SDS011;65825;52.232;10.566;2023-03-01T01:26:56;11.80;;;4.67;;
76852;SDS011;65825;52.232;10.566;2023-03-01T01:29:22;12.30;;;5.03;;
76852;SDS011;65825;52.232;10.566;2023-03-01T01:31:47;13.43;;;4.90;;
76852;SDS011;65825;52.232;10.566;2023-03-01T01:34:14;10.40;;;4.88;;
76852;SDS011;65825;52.232;10.566;2023-03-01T01:36:41;10.00;;;4.93;;
76852;SDS011;65825;52.232;10.566;2023-03-01T01:39:07;11.32;;;5.05;;
76852;SDS011;65825;52.232;10.566;2023-03-01T01:41:32;10.18;;;4.82;;
76852;SDS011;65825;52.232;10.566;2023-03-01T01:44:09;9.30;;;4.40;;
76852;SDS011;65825;52.232;10.566;2023-03-01T01:46:36;11.88;;;4.65;;
76852;SDS011;65825;52.232;10.566;2023-03-01T01:49:05;11.52;;;4.63;;
76852;SDS011;65825;52.232;10.566;2023-03-01T01:54:14;7.38;;;4.00;;
76852;SDS011;65825;52.232;10.566;2023-03-01T01:56:46;9.80;;;4.32;;
76852;SDS011;65825;52.232;10.566;2023-03-01T01:59:16;10.13;;;4.30;;
76852;SDS011;65825;52.232;10.566;2023-03-01T02:01:42;9.70;;;4.00;;
76852;SDS011;65825;52.232;10.566;2023-03-01T02:04:08;9.73;;;4.25;;
76852;SDS011;65825;52.232;10.566;2023-03-01T02:06:36;8.50;;;4.00;;
76852;SDS011;65825;52.232;10.566;2023-03-01T02:09:06;9.20;;;4.57;;
76852;SDS011;65825;52.232;10.566;2023-03-01T02:11:36;12.05;;;4.60;;
76852;SDS011;65825;52.232;10.566;2023-03-01T02:14:02;8.00;;;4.32;;
76852;SDS011;65825;52.232;10.566;2023-03-01T02:16:28;10.63;;;4.20;;
76852;SDS011;65825;52.232;10.566;2023-03-01T02:18:54;11.00;;;4.80;;
76852;SDS011;65825;52.232;10.566;2023-03-01T02:24:20;10.02;;;4.97;;
76852;SDS011;65825;52.232;10.566;2023-03-01T02:26:54;12.57;;;4.90;;
76852;SDS011;65825;52.232;10.566;2023-03-01T02:29:22;11.07;;;5.20;;
76852;SDS011;65825;52.232;10.566;2023-03-01T02:31:48;11.32;;;5.10;;
76852;SDS011;65825;52.232;10.566;2023-03-01T02:34:16;11.57;;;4.90;;
76852;SDS011;65825;52.232;10.566;2023-03-01T02:36:48;13.20;;;5.13;;
76852;SDS011;65825;52.232;10.566;2023-03-01T02:39:19;10.57;;;4.80;;
76852;SDS011;65825;52.232;10.566;2023-03-01T02:41:52;12.13;;;5.40;;
76852;SDS011;65825;52.232;10.566;2023-03-01T02:44:18;11.48;;;5.13;;
76852;SDS011;65825;52.232;10.566;2023-03-01T02:46:50;10.80;;;5.20;;
76852;SDS011;65825;52.232;10.566;2023-03-01T02:49:26;11.93;;;5.47;;
76852;SDS011;65825;52.232;10.566;2023-03-01T02:55:27;11.52;;;4.85;;
76852;SDS011;65825;52.232;10.566;2023-03-01T02:57:39;14.98;;;5.03;;
76852;SDS011;65825;52.232;10.566;2023-03-01T03:00:08;12.57;;;5.22;;
76852;SDS011;65825;52.232;10.566;2023-03-01T03:02:35;12.77;;;5.10;;
76852;SDS011;65825;52.232;10.566;2023-03-01T03:05:11;10.45;;;5.20;;
76852;SDS011;65825;52.232;10.566;2023-03-01T03:07:43;12.05;;;4.85;;
76852;SDS011;65825;52.232;10.566;2023-03-01T03:12:40;14.18;;;4.25;;
76852;SDS011;65825;52.232;10.566;2023-03-01T03:15:06;10.45;;;4.40;;
76852;SDS011;65825;52.232;10.566;2023-03-01T03:17:36;11.70;;;4.65;;
76852;SDS011;65825;52.232;10.566;2023-03-01T03:20:04;11.98;;;5.03;;
76852;SDS011;65825;52.232;10.566;2023-03-01T03:22:31;11.13;;;4.93;;
76852;SDS011;65825;52.232;10.566;2023-03-01T03:24:59;9.18;;;4.60;;
76852;SDS011;65825;52.232;10.566;2023-03-01T03:27:24;9.00;;;4.72;;
76852;SDS011;65825;52.232;10.566;2023-03-01T03:29:49;13.33;;;5.17;;
76852;SDS011;65825;52.232;10.566;2023-03-01T03:32:15;9.63;;;4.87;;
76852;SDS011;65825;52.232;10.566;2023-03-01T03:34:40;9.73;;;4.43;;
76852;SDS011;65825;52.232;10.566;2023-03-01T03:37:05;13.83;;;5.20;;
76852;SDS011;65825;52.232;10.566;2023-03-01T03:39:50;10.68;;;4.40;;
76852;SDS011;65825;52.232;10.566;2023-03-01T03:42:19;13.18;;;4.55;;
76852;SDS011;65825;52.232;10.566;2023-03-01T03:44:45;11.02;;;4.70;;
76852;SDS011;65825;52.232;10.566;2023-03-01T03:47:10;13.50;;;5.30;;
76852;SDS011;65825;52.232;10.566;2023-03-01T03:49:36;8.87;;;4.63;;
76852;SDS011;65825;52.232;10.566;2023-03-01T03:52:01;13.90;;;4.67;;
76852;SDS011;65825;52.232;10.566;2023-03-01T03:54:26;10.87;;;4.80;;
76852;SDS011;65825;52.232;10.566;2023-03-01T03:56:51;11.23;;;5.07;;
76852;SDS011;65825;52.232;10.566;2023-03-01T03:59:17;11.10;;;4.97;;
76852;SDS011;65825;52.232;10.566;2023-03-01T04:01:42;10.33;;;4.70;;
76852;SDS011;65825;52.232;10.566;2023-03-01T04:04:09;13.52;;;4.95;;
76852;SDS011;65825;52.232;10.566;2023-03-01T04:06:34;11.90;;;4.43;;
76852;SDS011;65825;52.232;10.566;2023-03-01T04:09:00;12.40;;;5.00;;
76852;SDS011;65825;52.232;10.566;2023-03-01T04:11:27;12.98;;;5.10;;
76852;SDS011;65825;52.232;10.566;2023-03-01T04:13:56;10.90;;;5.07;;
76852;SDS011;65825;52.232;10.566;2023-03-01T04:16:23;9.65;;;5.07;;
76852;SDS011;65825;52.232;10.566;2023-03-01T04:18:49;11.52;;;4.70;;
76852;SDS011;65825;52.232;10.566;2023-03-01T04:21:18;12.30;;;5.05;;
76852;SDS011;65825;52.232;10.566;2023-03-01T04:23:45;9.68;;;4.40;;
76852;SDS011;65825;52.232;10.566;2023-03-01T04:26:10;12.82;;;4.80;;
76852;SDS011;65825;52.232;10.566;2023-03-01T04:28:37;12.02;;;4.65;;
76852;SDS011;65825;52.232;10.566;2023-03-01T04:31:15;12.93;;;4.57;;
76852;SDS011;65825;52.232;10.566;2023-03-01T04:33:44;12.55;;;4.63;;
76852;SDS011;65825;52.232;10.566;2023-03-01T04:36:12;10.77;;;4.53;;
76852;SDS011;65825;52.232;10.566;2023-03-01T04:38:38;10.00;;;4.53;;
76852;SDS011;65825;52.232;10.566;2023-03-01T04:41:07;9.18;;;4.45;;
76852;SDS011;65825;52.232;10.566;2023-03-01T04:43:35;12.13;;;5.22;;
76852;SDS011;65825;52.232;10.566;2023-03-01T04:46:05;12.32;;;4.60;;
76852;SDS011;65825;52.232;10.566;2023-03-01T04:48:33;13.98;;;5.45;;
76852;SDS011;65825;52.232;10.566;2023-03-01T04:50:59;10.55;;;4.43;;
76852;SDS011;65825;52.232;10.566;2023-03-01T04:53:25;9.95;;;4.55;;
76852;SDS011;65825;52.232;10.566;2023-03-01T04:55:51;10.73;;;5.13;;
76852;SDS011;65825;52.232;10.566;2023-03-01T04:58:18;9.80;;;4.15;;
76852;SDS011;65825;52.232;10.566;2023-03-01T05:00:44;11.07;;;4.80;;
76852;SDS011;65825;52.232;10.566;2023-03-01T05:03:09;9.83;;;4.00;;
76852;SDS011;65825;52.232;10.566;2023-03-01T05:05:35;8.50;;;4.03;;
76852;SDS011;65825;52.232;10.566;2023-03-01T05:08:03;8.75;;;4.35;;
76852;SDS011;65825;52.232;10.566;2023-03-01T05:10:30;10.85;;;5.00;;
76852;SDS011;65825;52.232;10.566;2023-03-01T05:12:57;10.18;;;4.53;;
76852;SDS011;65825;52.232;10.566;2023-03-01T05:15:27;9.13;;;4.93;;
76852;SDS011;65825;52.232;10.566;2023-03-01T05:17:54;9.98;;;4.60;;
76852;SDS011;65825;52.232;10.566;2023-03-01T05:20:23;16.10;;;6.47;;
76852;SDS011;65825;52.232;10.566;2023-03-01T05:22:49;14.60;;;7.28;;
76852;SDS011;65825;52.232;10.566;2023-03-01T05:25:15;13.55;;;6.15;;
76852;SDS011;65825;52.232;10.566;2023-03-01T05:27:40;15.25;;;6.45;;
76852;SDS011;65825;52.232;10.566;2023-03-01T05:30:06;14.40;;;7.47;;
76852;SDS011;65825;52.232;10.566;2023-03-01T05:32:50;14.02;;;6.55;;
76852;SDS011;65825;52.232;10.566;2023-03-01T05:35:20;15.85;;;6.47;;
76852;SDS011;65825;52.232;10.566;2023-03-01T05:37:47;13.63;;;6.35;;
76852;SDS011;65825;52.232;10.566;2023-03-01T05:40:14;13.35;;;5.80;;
76852;SDS011;65825;52.232;10.566;2023-03-01T05:42:43;11.43;;;4.85;;
76852;SDS011;65825;52.232;10.566;2023-03-01T05:45:16;10.88;;;4.97;;
76852;SDS011;65825;52.232;10.566;2023-03-01T05:47:43;11.13;;;5.60;;
76852;SDS011;65825;52.232;10.566;2023-03-01T05:52:49;8.60;;;4.40;;
76852;SDS011;65825;52.232;10.566;2023-03-01T05:55:19;7.50;;;4.30;;
76852;SDS011;65825;52.232;10.566;2023-03-01T05:57:46;9.45;;;4.70;;
76852;SDS011;65825;52.232;10.566;2023-03-01T06:00:12;10.85;;;4.70;;
76852;SDS011;65825;52.232;10.566;2023-03-01T06:02:43;11.30;;;5.28;;
76852;SDS011;65825;52.232;10.566;2023-03-01T06:05:10;8.73;;;4.65;;
76852;SDS011;65825;52.232;10.566;2023-03-01T06:07:36;10.90;;;4.85;;
76852;SDS011;65825;52.232;10.566;2023-03-01T06:10:04;11.27;;;4.68;;
76852;SDS011;65825;52.232;10.566;2023-03-01T06:14:57;9.40;;;4.35;;
76852;SDS011;65825;52.232;10.566;2023-03-01T06:17:23;10.15;;;3.95;;
76852;SDS011;65825;52.232;10.566;2023-03-01T06:19:48;12.85;;;4.78;;
76852;SDS011;65825;52.232;10.566;2023-03-01T06:22:13;14.73;;;4.60;;
76852;SDS011;65825;52.232;10.566;2023-03-01T06:24:38;10.33;;;4.87;;
76852;SDS011;65825;52.232;10.566;2023-03-01T06:27:04;11.33;;;4.87;;
76852;SDS011;65825;52.232;10.566;2023-03-01T06:29:29;9.27;;;5.00;;
76852;SDS011;65825;52.232;10.566;2023-03-01T06:31:54;12.60;;;5.15;;
76852;SDS011;65825;52.232;10.566;2023-03-01T06:34:19;7.93;;;4.17;;
76852;SDS011;65825;52.232;10.566;2023-03-01T06:36:46;13.23;;;5.35;;
76852;SDS011;65825;52.232;10.566;2023-03-01T06:39:12;11.00;;;5.32;;
76852;SDS011;65825;52.232;10.566;2023-03-01T06:41:39;13.95;;;5.90;;
76852;SDS011;65825;52.232;10.566;2023-03-01T06:44:04;11.97;;;4.60;;
76852;SDS011;65825;52.232;10.566;2023-03-01T06:46:30;9.30;;;4.63;;
76852;SDS011;65825;52.232;10.566;2023-03-01T06:48:55;10.63;;;5.45;;
76852;SDS011;65825;52.232;10.566;2023-03-01T06:51:21;10.80;;;4.95;;
76852;SDS011;65825;52.232;10.566;2023-03-01T06:53:46;8.27;;;4.47;;
76852;SDS011;65825;52.232;10.566;2023-03-01T06:56:11;11.98;;;5.13;;
76852;SDS011;65825;52.232;10.566;2023-03-01T06:58:36;11.73;;;5.00;;
76852;SDS011;65825;52.232;10.566;2023-03-01T07:01:05;11.07;;;5.43;;
76852;SDS011;65825;52.232;10.566;2023-03-01T07:03:31;12.85;;;5.72;;
76852;SDS011;65825;52.232;10.566;2023-03-01T07:05:56;14.00;;;5.60;;
76852;SDS011;65825;52.232;10.566;2023-03-01T07:08:21;13.93;;;5.80;;
76852;SDS011;65825;52.232;10.566;2023-03-01T07:10:47;12.83;;;5.67;;
76852;SDS011;65825;52.232;10.566;2023-03-01T07:13:12;14.87;;;5.17;;
76852;SDS011;65825;52.232;10.566;2023-03-01T07:15:39;12.80;;;6.03;;
76852;SDS011;65825;52.232;10.566;2023-03-01T07:18:05;10.68;;;5.72;;
76852;SDS011;65825;52.232;10.566;2023-03-01T07:20:30;17.27;;;7.10;;
76852;SDS011;65825;52.232;10.566;2023-03-01T07:22:55;18.77;;;8.17;;
76852;SDS011;65825;52.232;10.566;2023-03-01T07:25:23;17.00;;;7.60;;
76852;SDS011;65825;52.232;10.566;2023-03-01T07:27:49;18.20;;;8.77;;
76852;SDS011;65825;52.232;10.566;2023-03-01T07:30:18;18.10;;;8.55;;
76852;SDS011;65825;52.232;10.566;2023-03-01T07:32:45;18.35;;;9.27;;
76852;SDS011;65825;52.232;10.566;2023-03-01T07:35:10;18.63;;;8.80;;
76852;SDS011;65825;52.232;10.566;2023-03-01T07:37:36;21.60;;;9.90;;
76852;SDS011;65825;52.232;10.566;2023-03-01T07:40:01;18.48;;;8.98;;
76852;SDS011;65825;52.232;10.566;2023-03-01T07:42:27;13.85;;;7.55;;
76852;SDS011;65825;52.232;10.566;2023-03-01T07:44:52;17.97;;;9.30;;
76852;SDS011;65825;52.232;10.566;2023-03-01T07:47:17;16.83;;;8.17;;
76852;SDS011;65825;52.232;10.566;2023-03-01T07:49:42;16.33;;;8.53;;
76852;SDS011;65825;52.232;10.566;2023-03-01T07:52:09;19.80;;;8.93;;
76852;SDS011;65825;52.232;10.566;2023-03-01T07:54:36;24.52;;;10.50;;
76852;SDS011;65825;52.232;10.566;2023-03-01T07:57:01;20.90;;;8.13;;
76852;SDS011;65825;52.232;10.566;2023-03-01T07:59:26;21.03;;;10.27;;
76852;SDS011;65825;52.232;10.566;2023-03-01T08:01:54;21.15;;;9.13;;
76852;SDS011;65825;52.232;10.566;2023-03-01T08:04:20;17.60;;;9.68;;
76852;SDS011;65825;52.232;10.566;2023-03-01T08:06:45;20.23;;;8.83;;
76852;SDS011;65825;52.232;10.566;2023-03-01T08:09:10;17.58;;;8.70;;
76852;SDS011;65825;52.232;10.566;2023-03-01T08:11:36;17.00;;;8.07;;
76852;SDS011;65825;52.232;10.566;2023-03-01T08:14:01;16.83;;;8.35;;
76852;SDS011;65825;52.232;10.566;2023-03-01T08:16:26;19.50;;;8.23;;
76852;SDS011;65825;52.232;10.566;2023-03-01T08:18:52;14.77;;;7.82;;
76852;SDS011;65825;52.232;10.566;2023-03-01T08:21:17;13.37;;;7.77;;
76852;SDS011;65825;52.232;10.566;2023-03-01T08:23:43;17.20;;;7.47;;
76852;SDS011;65825;52.232;10.566;2023-03-01T08:26:10;14.05;;;6.97;;
76852;SDS011;65825;52.232;10.566;2023-03-01T08:28:37;12.10;;;6.80;;
76852;SDS011;65825;52.232;10.566;2023-03-01T08:31:13;12.70;;;7.30;;
76852;SDS011;65825;52.232;10.566;2023-03-01T08:34:00;11.07;;;6.20;;
76852;SDS011;65825;52.232;10.566;2023-03-01T08:38:56;16.17;;;5.78;;
76852;SDS011;65825;52.232;10.566;2023-03-01T08:41:22;9.25;;;4.97;;
76852;SDS011;65825;52.232;10.566;2023-03-01T08:43:47;11.95;;;5.70;;
76852;SDS011;65825;52.232;10.566;2023-03-01T08:46:15;12.27;;;6.03;;
76852;SDS011;65825;52.232;10.566;2023-03-01T08:48:40;10.25;;;5.78;;
76852;SDS011;65825;52.232;10.566;2023-03-01T08:51:11;14.57;;;6.97;;
76852;SDS011;65825;52.232;10.566;2023-03-01T08:53:39;12.18;;;6.63;;
76852;SDS011;65825;52.232;10.566;2023-03-01T08:56:05;15.73;;;7.20;;
76852;SDS011;65825;52.232;10.566;2023-03-01T08:58:31;12.57;;;6.97;;
76852;SDS011;65825;52.232;10.566;2023-03-01T09:00:56;13.60;;;7.22;;
76852;SDS011;65825;52.232;10.566;2023-03-01T09:03:22;12.37;;;7.10;;
76852;SDS011;65825;52.232;10.566;2023-03-01T09:05:47;10.50;;;6.00;;
76852;SDS011;65825;52.232;10.566;2023-03-01T09:08:15;11.75;;;5.63;;
76852;SDS011;65825;52.232;10.566;2023-03-01T09:10:40;13.60;;;5.95;;
76852;SDS011;65825;52.232;10.566;2023-03-01T09:13:05;16.13;;;5.60;;
76852;SDS011;65825;52.232;10.566;2023-03-01T09:15:30;12.83;;;5.77;;
76852;SDS011;65825;52.232;10.566;2023-03-01T09:17:56;11.27;;;5.97;;
76852;SDS011;65825;52.232;10.566;2023-03-01T09:20:21;9.77;;;5.80;;
76852;SDS011;65825;52.232;10.566;2023-03-01T09:22:46;13.85;;;6.00;;
76852;SDS011;65825;52.232;10.566;2023-03-01T09:25:12;12.57;;;6.37;;
76852;SDS011;65825;52.232;10.566;2023-03-01T09:27:37;11.50;;;5.82;;
76852;SDS011;65825;52.232;10.566;2023-03-01T09:30:02;12.40;;;6.15;;
76852;SDS011;65825;52.232;10.566;2023-03-01T09:32:29;13.10;;;6.22;;
76852;SDS011;65825;52.232;10.566;2023-03-01T09:34:55;9.90;;;5.60;;
76852;SDS011;65825;52.232;10.566;2023-03-01T09:37:29;13.65;;;5.45;;
76852;SDS011;65825;52.232;10.566;2023-03-01T09:39:56;17.50;;;7.50;;
76852;SDS011;65825;52.232;10.566;2023-03-01T09:42:21;9.77;;;6.10;;
76852;SDS011;65825;52.232;10.566;2023-03-01T09:44:56;15.48;;;6.13;;
76852;SDS011;65825;52.232;10.566;2023-03-01T09:47:26;10.25;;;5.95;;
76852;SDS011;65825;52.232;10.566;2023-03-01T09:49:57;12.13;;;6.07;;
76852;SDS011;65825;52.232;10.566;2023-03-01T09:52:33;14.15;;;6.45;;
76852;SDS011;65825;52.232;10.566;2023-03-01T09:55:07;11.55;;;6.28;;
76852;SDS011;65825;52.232;10.566;2023-03-01T09:57:38;13.77;;;5.75;;
76852;SDS011;65825;52.232;10.566;2023-03-01T10:11:21;12.07;;;6.07;;
76852;SDS011;65825;52.232;10.566;2023-03-01T10:19:31;9.98;;;5.65;;
76852;SDS011;65825;52.232;10.566;2023-03-01T10:22:43;9.15;;;5.85;;
76852;SDS011;65825;52.232;10.566;2023-03-01T10:24:53;10.60;;;5.82;;
76852;SDS011;65825;52.232;10.566;2023-03-01T10:27:22;14.70;;;5.65;;
76852;SDS011;65825;52.232;10.566;2023-03-01T10:30:10;12.20;;;6.30;;
76852;SDS011;65825;52.232;10.566;2023-03-01T10:32:37;13.38;;;6.82;;
76852;SDS011;65825;52.232;10.566;2023-03-01T10:35:18;10.77;;;6.63;;
76852;SDS011;65825;52.232;10.566;2023-03-01T10:40:49;9.27;;;5.25;;
76852;SDS011;65825;52.232;10.566;2023-03-01T10:43:16;11.73;;;6.00;;
76852;SDS011;65825;52.232;10.566;2023-03-01T10:48:20;10.80;;;6.17;;
76852;SDS011;65825;52.232;10.566;2023-03-01T10:51:04;10.85;;;5.32;;
76852;SDS011;65825;52.232;10.566;2023-03-01T10:53:37;11.32;;;5.88;;
76852;SDS011;65825;52.232;10.566;2023-03-01T10:56:13;10.20;;;5.50;;
76852;SDS011;65825;52.232;10.566;2023-03-01T10:58:41;11.85;;;6.45;;
76852;SDS011;65825;52.232;10.566;2023-03-01T11:04:03;11.53;;;6.90;;
76852;SDS011;65825;52.232;10.566;2023-03-01T11:06:33;10.88;;;6.45;;
76852;SDS011;65825;52.232;10.566;2023-03-01T11:09:22;11.57;;;6.57;;
76852;SDS011;65825;52.232;10.566;2023-03-01T11:11:59;10.70;;;6.05;;
76852;SDS011;65825;52.232;10.566;2023-03-01T11:14:30;12.05;;;6.55;;
76852;SDS011;65825;52.232;10.566;2023-03-01T11:17:46;11.45;;;6.88;;
76852;SDS011;65825;52.232;10.566;2023-03-01T11:22:51;13.13;;;6.97;;
76852;SDS011;65825;52.232;10.566;2023-03-01T11:25:23;12.82;;;7.28;;
76852;SDS011;65825;52.232;10.566;2023-03-01T11:27:51;11.65;;;6.57;;
76852;SDS011;65825;52.232;10.566;2023-03-01T11:35:34;10.02;;;6.60;;
76852;SDS011;65825;52.232;10.566;2023-03-01T11:38:15;11.10;;;6.75;;
76852;SDS011;65825;52.232;10.566;2023-03-01T11:40:47;10.18;;;6.72;;
76852;SDS011;65825;52.232;10.566;2023-03-01T11:46:30;9.85;;;6.07;;
76852;SDS011;65825;52.232;10.566;2023-03-01T11:58:00;12.30;;;6.35;;
76852;SDS011;65825;52.232;10.566;2023-03-01T12:12:11;9.85;;;5.85;;
76852;SDS011;65825;52.232;10.566;2023-03-01T12:20:50;8.48;;;5.50;;
76852;SDS011;65825;52.232;10.566;2023-03-01T12:37:15;7.82;;;5.07;;
76852;SDS011;65825;52.232;10.566;2023-03-01T12:40:02;9.60;;;5.47;;
76852;SDS011;65825;52.232;10.566;2023-03-01T12:43:04;8.65;;;5.72;;
76852;SDS011;65825;52.232;10.566;2023-03-01T12:51:28;12.48;;;6.30;;
76852;SDS011;65825;52.232;10.566;2023-03-01T12:53:57;8.52;;;5.32;;
76852;SDS011;65825;52.232;10.566;2023-03-01T12:56:28;10.90;;;5.65;;
76852;SDS011;65825;52.232;10.566;2023-03-01T13:01:53;9.23;;;5.53;;
76852;SDS011;65825;52.232;10.566;2023-03-01T13:04:23;9.23;;;5.85;;
76852;SDS011;65825;52.232;10.566;2023-03-01T13:07:30;9.15;;;5.20;;
76852;SDS011;65825;52.232;10.566;2023-03-01T13:12:50;8.73;;;5.17;;
76852;SDS011;65825;52.232;10.566;2023-03-01T13:26:08;7.75;;;4.70;;
76852;SDS011;65825;52.232;10.566;2023-03-01T13:30:58;7.70;;;4.93;;
76852;SDS011;65825;52.232;10.566;2023-03-01T13:35:55;8.75;;;5.30;;
76852;SDS011;65825;52.232;10.566;2023-03-01T13:44:13;10.05;;;5.40;;
76852;SDS011;65825;52.232;10.566;2023-03-01T13:46:55;9.20;;;5.35;;
76852;SDS011;65825;52.232;10.566;2023-03-01T13:49:25;12.00;;;5.75;;
76852;SDS011;65825;52.232;10.566;2023-03-01T13:51:53;9.38;;;5.53;;
76852;SDS011;65825;52.232;10.566;2023-03-01T13:54:23;10.30;;;5.60;;
76852;SDS011;65825;52.232;10.566;2023-03-01T13:56:53;10.77;;;5.85;;
76852;SDS011;65825;52.232;10.566;2023-03-01T13:59:20;9.32;;;5.45;;
76852;SDS011;65825;52.232;10.566;2023-03-01T14:01:53;7.80;;;4.90;;
76852;SDS011;65825;52.232;10.566;2023-03-01T14:04:25;9.85;;;5.55;;
76852;SDS011;65825;52.232;10.566;2023-03-01T14:09:58;8.70;;;5.28;;
76852;SDS011;65825;52.232;10.566;2023-03-01T14:15:10;10.07;;;5.65;;
76852;SDS011;65825;52.232;10.566;2023-03-01T14:17:57;11.32;;;5.75;;
76852;SDS011;65825;52.232;10.566;2023-03-01T14:20:33;9.18;;;5.20;;
76852;SDS011;65825;52.232;10.566;2023-03-01T14:23:12;9.38;;;5.10;;
76852;SDS011;65825;52.232;10.566;2023-03-01T14:25:46;10.10;;;5.70;;
76852;SDS011;65825;52.232;10.566;2023-03-01T14:28:26;8.18;;;4.88;;
76852;SDS011;65825;52.232;10.566;2023-03-01T14:30:54;11.20;;;5.30;;
76852;SDS011;65825;52.232;10.566;2023-03-01T14:33:31;8.80;;;5.00;;
76852;SDS011;65825;52.232;10.566;2023-03-01T14:36:10;9.25;;;5.15;;
76852;SDS011;65825;52.232;10.566;2023-03-01T14:38:41;7.90;;;4.53;;
76852;SDS011;65825;52.232;10.566;2023-03-01T14:41:13;7.75;;;4.63;;
76852;SDS011;65825;52.232;10.566;2023-03-01T14:43:44;7.15;;;4.65;;
76852;SDS011;65825;52.232;10.566;2023-03-01T14:46:20;8.80;;;4.75;;
76852;SDS011;65825;52.232;10.566;2023-03-01T14:48:53;7.78;;;4.75;;
76852;SDS011;65825;52.232;10.566;2023-03-01T14:51:23;8.02;;;4.82;;
76852;SDS011;65825;52.232;10.566;2023-03-01T14:53:49;8.98;;;4.35;;
76852;SDS011;65825;52.232;10.566;2023-03-01T14:56:16;12.27;;;4.70;;
76852;SDS011;65825;52.232;10.566;2023-03-01T14:58:44;8.38;;;4.53;;
76852;SDS011;65825;52.232;10.566;2023-03-01T15:01:13;10.30;;;4.28;;
76852;SDS011;65825;52.232;10.566;2023-03-01T15:03:44;9.57;;;4.63;;
76852;SDS011;65825;52.232;10.566;2023-03-01T15:06:14;8.00;;;4.18;;
76852;SDS011;65825;52.232;10.566;2023-03-01T15:08:42;8.10;;;4.43;;
76852;SDS011;65825;52.232;10.566;2023-03-01T15:13:38;7.68;;;4.22;;
76852;SDS011;65825;52.232;10.566;2023-03-01T15:18:30;8.07;;;3.45;;
76852;SDS011;65825;52.232;10.566;2023-03-01T15:20:55;7.63;;;3.97;;
76852;SDS011;65825;52.232;10.566;2023-03-01T15:23:29;7.07;;;3.72;;
76852;SDS011;65825;52.232;10.566;2023-03-01T15:25:55;8.75;;;3.70;;
76852;SDS011;65825;52.232;10.566;2023-03-01T15:28:37;7.65;;;3.78;;
76852;SDS011;65825;52.232;10.566;2023-03-01T15:34:10;9.05;;;3.47;;
76852;SDS011;65825;52.232;10.566;2023-03-01T15:36:46;7.20;;;3.30;;
76852;SDS011;65825;52.232;10.566;2023-03-01T15:42:35;8.40;;;3.70;;
76852;SDS011;65825;52.232;10.566;2023-03-01T15:48:04;7.63;;;3.25;;
76852;SDS011;65825;52.232;10.566;2023-03-01T15:50:40;5.43;;;3.03;;
76852;SDS011;65825;52.232;10.566;2023-03-01T15:53:11;6.35;;;3.28;;
76852;SDS011;65825;52.232;10.566;2023-03-01T15:55:39;6.88;;;3.20;;
76852;SDS011;65825;52.232;10.566;2023-03-01T16:00:47;7.95;;;3.25;;
76852;SDS011;65825;52.232;10.566;2023-03-01T16:03:13;7.70;;;3.85;;
76852;SDS011;65825;52.232;10.566;2023-03-01T16:05:41;8.57;;;3.20;;
76852;SDS011;65825;52.232;10.566;2023-03-01T16:08:07;8.95;;;3.22;;
76852;SDS011;65825;52.232;10.566;2023-03-01T16:10:32;7.78;;;3.55;;
76852;SDS011;65825;52.232;10.566;2023-03-01T16:12:58;8.57;;;3.42;;
76852;SDS011;65825;52.232;10.566;2023-03-01T16:15:28;6.35;;;2.88;;
76852;SDS011;65825;52.232;10.566;2023-03-01T16:17:56;9.20;;;3.63;;
76852;SDS011;65825;52.232;10.566;2023-03-01T16:20:22;6.18;;;3.08;;
76852;SDS011;65825;52.232;10.566;2023-03-01T16:22:49;7.50;;;3.03;;
76852;SDS011;65825;52.232;10.566;2023-03-01T16:25:15;8.05;;;3.92;;
76852;SDS011;65825;52.232;10.566;2023-03-01T16:27:42;11.73;;;3.58;;
76852;SDS011;65825;52.232;10.566;2023-03-01T16:30:09;8.18;;;3.22;;
76852;SDS011;65825;52.232;10.566;2023-03-01T16:32:42;9.48;;;3.17;;
76852;SDS011;65825;52.232;10.566;2023-03-01T16:35:09;8.38;;;3.67;;
76852;SDS011;65825;52.232;10.566;2023-03-01T16:37:36;6.35;;;3.20;;
76852;SDS011;65825;52.232;10.566;2023-03-01T16:40:02;7.43;;;3.17;;
76852;SDS011;65825;52.232;10.566;2023-03-01T16:42:36;6.07;;;3.42;;
76852;SDS011;65825;52.232;10.566;2023-03-01T16:45:02;7.82;;;2.90;;
76852;SDS011;65825;52.232;10.566;2023-03-01T16:47:28;10.00;;;3.20;;
76852;SDS011;65825;52.232;10.566;2023-03-01T16:49:54;7.03;;;3.22;;
76852;SDS011;65825;52.232;10.566;2023-03-01T16:52:20;11.13;;;3.25;;
76852;SDS011;65825;52.232;10.566;2023-03-01T16:54:46;7.50;;;3.00;;
76852;SDS011;65825;52.232;10.566;2023-03-01T16:57:11;7.90;;;2.80;;
76852;SDS011;65825;52.232;10.566;2023-03-01T16:59:37;8.77;;;3.13;;
76852;SDS011;65825;52.232;10.566;2023-03-01T17:02:03;7.20;;;2.83;;
76852;SDS011;65825;52.232;10.566;2023-03-01T17:04:30;5.78;;;2.78;;
76852;SDS011;65825;52.232;10.566;2023-03-01T17:06:56;6.50;;;2.85;;
76852;SDS011;65825;52.232;10.566;2023-03-01T17:09:21;6.83;;;2.90;;